Time;durP1;ratioP1;P1;durP2;ratioP2;P2;SDS_P1;SDS_P2;PMS_P1;PMS_P2;Temp;Humidity;BMP_temperature;BMP_pressure;BME280_temperature;BME280_humidity;BME280_pressure;Samples;Min_cycle;Max_cycle;Signal;HPM_P1;HPM_P2
2022/09/22 00:01:30;;;;;;;5.00;2.72;;;;;;;10.10;78.52;102037.34;1732881;81;21536;-87
2022/09/22 00:03:59;;;;;;;5.37;3.10;;;;;;;10.11;78.49;102034.75;1739077;81;21025;-88
2022/09/22 00:06:32;;;;;;;4.25;2.35;;;;;;;10.14;78.51;102037.08;1761390;80;21280;-88
2022/09/22 00:09:00;;;;;;;5.30;2.42;;;;;;;10.14;78.51;102038.39;1739749;80;21033;-88
2022/09/22 00:11:32;;;;;;;3.25;2.30;;;;;;;10.16;78.57;102044.20;1737846;82;21730;-89
2022/09/22 00:14:16;;;;;;;4.37;2.10;;;;;;;10.20;78.65;102049.19;1737458;82;21017;-89
2022/09/22 00:17:00;;;;;;;4.25;2.17;;;;;;;10.22;78.63;102052.38;1737872;82;20985;-89
2022/09/22 00:19:31;;;;;;;4.70;2.10;;;;;;;10.25;78.66;102043.32;1740158;82;21031;-89
2022/09/22 00:21:58;;;;;;;3.42;2.30;;;;;;;10.28;78.58;102044.76;1727725;82;21076;-88
2022/09/22 00:24:25;;;;;;;4.47;2.10;;;;;;;10.26;78.49;102042.47;1740289;81;21707;-89
2022/09/22 00:26:56;;;;;;;6.42;2.33;;;;;;;10.24;78.47;102043.24;1741140;81;20990;-89
2022/09/22 00:29:25;;;;;;;3.15;2.08;;;;;;;10.22;78.48;102042.27;1746787;81;20988;-88
2022/09/22 00:31:53;;;;;;;4.45;2.50;;;;;;;10.20;78.53;102049.19;1737516;81;21439;-88
2022/09/22 00:34:22;;;;;;;5.53;2.30;;;;;;;10.21;78.65;102048.34;1739531;80;20968;-88
2022/09/22 00:36:49;;;;;;;3.37;2.27;;;;;;;10.24;78.77;102047.19;1737928;82;21728;-89
2022/09/22 00:39:16;;;;;;;4.92;2.05;;;;;;;10.30;78.83;102048.78;1737404;82;20946;-88
2022/09/22 00:41:46;;;;;;;2.30;1.80;;;;;;;10.33;78.76;102046.34;1737960;82;21015;-88
2022/09/22 00:44:30;;;;;;;5.17;1.82;;;;;;;10.39;78.81;102050.99;1710898;82;21126;-87
2022/09/22 00:47:36;;;;;;;3.20;2.20;;;;;;;10.41;78.72;102046.69;1737393;82;21036;-87
2022/09/22 00:50:20;;;;;;;5.45;2.00;;;;;;;10.45;78.73;102047.31;1737725;82;22650;-89
2022/09/22 00:53:02;;;;;;;3.60;1.60;;;;;;;10.51;78.75;102038.41;1712989;80;20994;-87
2022/09/22 00:55:57;;;;;;;4.30;2.00;;;;;;;10.56;78.66;102042.12;1726325;80;21104;-88
2022/09/22 00:58:36;;;;;;;4.00;2.10;;;;;;;10.57;78.54;102038.68;1738505;82;21096;-88
2022/09/22 01:01:03;;;;;;;3.77;1.80;;;;;;;10.56;78.52;102040.81;1711694;80;21017;-88
2022/09/22 01:03:30;;;;;;;2.80;2.00;;;;;;;10.55;78.41;102035.47;1708303;82;21716;-88
2022/09/22 01:06:00;;;;;;;3.58;2.00;;;;;;;10.51;78.43;102035.78;1744065;81;21026;-88
2022/09/22 01:08:26;;;;;;;3.27;2.35;;;;;;;10.49;78.46;102038.33;1750914;81;21454;-88
2022/09/22 01:10:54;;;;;;;3.45;1.80;;;;;;;10.48;78.49;102032.98;1737481;81;21108;-89
2022/09/22 01:14:05;;;;;;;4.95;2.00;;;;;;;10.45;78.46;102039.42;1736772;82;20981;-88
2022/09/22 01:16:55;;;;;;;4.55;2.12;;;;;;;10.44;78.53;102038.53;1746410;81;21713;-88
2022/09/22 01:19:30;;;;;;;5.47;1.80;;;;;;;10.43;78.55;102038.03;1717950;82;21022;-88
2022/09/22 01:22:35;;;;;;;5.37;1.87;;;;;;;10.46;78.68;102034.23;1712858;82;21081;-89
2022/09/22 01:25:37;;;;;;;4.35;1.75;;;;;;;10.51;78.75;102035.78;1712738;82;21014;-88
2022/09/22 01:28:36;;;;;;;3.85;2.00;;;;;;;10.55;78.73;102036.79;1712783;82;21086;-88
2022/09/22 01:31:32;;;;;;;3.27;1.98;;;;;;;10.57;78.71;102031.20;1712856;82;21691;-88
2022/09/22 01:34:25;;;;;;;4.25;1.92;;;;;;;10.61;78.73;102034.03;1716397;82;20958;-88
2022/09/22 01:37:18;;;;;;;2.47;1.62;;;;;;;10.63;78.73;102035.00;1666070;83;20995;-89
2022/09/22 01:39:56;;;;;;;2.27;1.10;;;;;;;10.66;78.75;102035.55;1687239;83;21114;-89
2022/09/22 01:42:30;;;;;;;7.35;1.40;;;;;;;10.69;78.82;102043.17;1709681;82;21006;-89
2022/09/22 01:45:08;;;;;;;1.75;1.17;;;;;;;10.70;78.86;102041.03;1676588;83;22559;-89
2022/09/22 01:47:46;;;;;;;2.33;1.35;;;;;;;10.67;78.92;102042.20;1709301;82;21063;-89
2022/09/22 01:50:38;;;;;;;1.80;1.17;;;;;;;10.69;79.03;102052.81;1689370;83;21479;-87
2022/09/22 01:53:09;;;;;;;2.10;1.27;;;;;;;10.69;79.11;102048.86;1740299;82;21033;-89
2022/09/22 01:55:40;;;;;;;3.05;1.30;;;;;;;10.69;79.19;102044.91;1686691;83;21027;-87
2022/09/22 01:58:18;;;;;;;1.95;1.00;;;;;;;10.68;79.23;102042.70;1730802;81;21792;-88
2022/09/22 02:00:50;;;;;;;2.20;0.98;;;;;;;10.72;79.25;102044.13;1732360;82;20994;-87
2022/09/22 02:03:28;;;;;;;1.40;1.10;;;;;;;10.75;79.25;102039.02;1736120;82;21067;-88
2022/09/22 02:06:03;;;;;;;3.08;1.40;;;;;;;10.76;79.26;102040.41;1737670;82;21635;-88
2022/09/22 02:08:34;;;;;;;3.12;1.35;;;;;;;10.73;79.32;102040.26;1737845;82;20997;-88
2022/09/22 02:11:09;;;;;;;3.67;1.60;;;;;;;10.74;79.40;102039.87;1737488;82;21801;-88
2022/09/22 02:13:36;;;;;;;4.40;1.87;;;;;;;10.75;79.31;102041.65;1737728;81;20969;-88
2022/09/22 02:16:05;;;;;;;4.42;1.75;;;;;;;10.75;79.33;102046.92;1737718;82;21000;-88
2022/09/22 02:18:37;;;;;;;8.13;2.05;;;;;;;10.76;79.45;102054.00;1719532;82;21025;-89
2022/09/22 02:21:06;;;;;;;3.67;1.50;;;;;;;10.77;79.42;102046.14;1737870;82;20973;-88
2022/09/22 02:23:34;;;;;;;5.25;1.50;;;;;;;10.80;79.44;102044.98;1737913;81;21736;-89
2022/09/22 02:26:01;;;;;;;2.67;1.80;;;;;;;10.82;79.43;102042.41;1735682;82;21448;-89
2022/09/22 02:28:28;;;;;;;3.37;1.70;;;;;;;10.86;79.45;102047.88;1708763;82;20999;-88
2022/09/22 02:30:55;;;;;;;3.77;1.65;;;;;;;10.91;79.50;102053.37;1708328;82;20996;-88
2022/09/22 02:33:22;;;;;;;1.72;1.50;;;;;;;10.93;79.44;102046.42;1699341;82;21001;-88
2022/09/22 02:35:54;;;;;;;3.98;1.72;;;;;;;10.95;79.35;102050.03;1738063;82;21732;-89
2022/09/22 02:38:43;;;;;;;4.35;1.50;;;;;;;10.97;79.40;102043.09;1715605;82;20965;-88
2022/09/22 02:41:19;;;;;;;2.67;1.60;;;;;;;11.00;79.42;102049.83;1737582;81;20957;-88
2022/09/22 02:43:57;;;;;;;3.08;1.45;;;;;;;11.02;79.41;102046.84;1725676;82;20972;-89
2022/09/22 02:46:30;;;;;;;3.33;1.57;;;;;;;11.04;79.42;102051.75;1729026;82;21011;-88
2022/09/22 02:49:00;;;;;;;3.42;1.80;;;;;;;11.06;79.39;102046.55;1699603;83;21755;-89
2022/09/22 02:51:30;;;;;;;4.37;1.90;;;;;;;11.07;79.38;102037.41;1655238;85;21007;-88
2022/09/22 02:53:57;;;;;;;3.95;2.15;;;;;;;11.05;79.24;102034.20;1668955;84;21146;-87
2022/09/22 02:56:24;;;;;;;4.65;2.05;;;;;;;11.03;79.22;102041.14;1679145;84;21371;-87
2022/09/22 02:58:51;;;;;;;2.58;1.60;;;;;;;11.00;79.14;102036.66;1662715;83;20995;-88
2022/09/22 03:01:20;;;;;;;3.72;2.22;;;;;;;10.97;79.23;102034.30;1655446;86;21792;-89
2022/09/22 03:03:46;;;;;;;2.77;1.70;;;;;;;10.96;79.27;102037.36;1676231;84;21003;-88
2022/09/22 03:06:14;;;;;;;6.33;2.00;;;;;;;10.96;79.29;102039.98;1654062;86;21059;-88
2022/09/22 03:08:40;;;;;;;2.92;1.67;;;;;;;10.93;79.18;102038.52;1655913;85;21008;-88
2022/09/22 03:11:07;;;;;;;6.78;1.70;;;;;;;10.89;79.13;102036.59;1655649;86;20992;-88
2022/09/22 03:13:34;;;;;;;3.95;2.25;;;;;;;10.85;79.14;102037.30;1654957;86;21809;-88
2022/09/22 03:16:01;;;;;;;2.80;1.70;;;;;;;10.82;79.13;102030.14;1640023;86;20977;-90
2022/09/22 03:18:28;;;;;;;3.40;1.95;;;;;;;10.81;79.16;102027.43;1670528;84;20996;-90
2022/09/22 03:20:55;;;;;;;2.70;1.87;;;;;;;10.78;79.13;102029.95;1687790;83;21168;-89
2022/09/22 03:23:21;;;;;;;3.40;1.95;;;;;;;10.75;79.14;102029.80;1701131;84;21006;-89
2022/09/22 03:25:48;;;;;;;3.55;1.90;;;;;;;10.74;79.15;102030.66;1696243;84;22548;-89
2022/09/22 03:28:15;;;;;;;4.78;1.82;;;;;;;10.70;79.11;102026.55;1702142;84;21027;-91
2022/09/22 03:30:42;;;;;;;4.20;1.80;;;;;;;10.66;79.10;102024.62;1695296;83;21078;-89
2022/09/22 03:33:09;;;;;;;3.17;1.70;;;;;;;10.63;79.13;102033.69;1659678;84;20985;-90
2022/09/22 03:35:41;;;;;;;3.55;2.00;;;;;;;10.61;79.14;102031.83;1666327;84;21037;-90
2022/09/22 03:38:08;;;;;;;3.87;1.75;;;;;;;10.58;79.20;102036.52;1685666;84;22585;-89
2022/09/22 03:40:35;;;;;;;4.17;1.92;;;;;;;10.57;79.21;102035.16;1674597;84;21085;-90
2022/09/22 03:43:09;;;;;;;4.03;2.05;;;;;;;10.53;79.27;102028.84;1655103;86;20964;-90
2022/09/22 03:45:45;;;;;;;2.45;1.70;;;;;;;10.54;79.37;102029.31;1655417;86;21063;-89
2022/09/22 03:48:12;;;;;;;3.40;2.10;;;;;;;10.55;79.52;102030.20;1659289;86;21037;-90
2022/09/22 03:50:39;;;;;;;3.12;1.60;;;;;;;10.54;79.65;102016.16;1666787;84;22583;-88
2022/09/22 03:53:05;;;;;;;2.72;1.85;;;;;;;10.55;79.78;102023.23;1656882;84;21011;-89
2022/09/22 03:55:33;;;;;;;2.42;1.35;;;;;;;10.55;79.82;102024.55;1663100;84;21053;-89
2022/09/22 03:58:00;;;;;;;2.72;1.50;;;;;;;10.58;79.83;102027.73;1677353;83;20999;-88
2022/09/22 04:00:27;;;;;;;2.05;1.35;;;;;;;10.62;79.85;102027.02;1755590;81;21036;-90
2022/09/22 04:02:54;;;;;;;1.45;1.22;;;;;;;10.65;79.86;102024.55;1762635;80;21764;-86
2022/09/22 04:05:20;;;;;;;1.60;1.30;;;;;;;10.69;79.88;102027.80;1733895;80;20989;-91
2022/09/22 04:07:47;;;;;;;4.17;1.42;;;;;;;10.69;79.84;102034.38;1740332;81;21100;-89
2022/09/22 04:10:14;;;;;;;2.47;1.30;;;;;;;10.68;79.82;102038.75;1741874;81;21033;-87
2022/09/22 04:12:42;;;;;;;1.40;1.00;;;;;;;10.66;79.85;102033.83;1758675;80;21562;-88
2022/09/22 04:15:09;;;;;;;3.65;1.55;;;;;;;10.70;79.98;102037.51;1729545;82;21776;-88
2022/09/22 04:17:36;;;;;;;4.53;1.90;;;;;;;10.73;80.00;102036.73;1732249;80;21025;-89
2022/09/22 04:20:04;;;;;;;6.72;4.53;;;;;;;10.74;80.03;102028.91;1734958;82;20948;-88
2022/09/22 04:22:31;;;;;;;9.83;3.75;;;;;;;10.78;80.03;102026.89;1763236;80;20969;-85
2022/09/22 04:24:57;;;;;;;6.47;2.77;;;;;;;10.81;79.99;102023.48;1730517;81;21005;-87
2022/09/22 04:27:24;;;;;;;9.45;2.30;;;;;;;10.83;80.11;102028.00;1729055;82;21748;-88
2022/09/22 04:29:51;;;;;;;4.72;1.72;;;;;;;10.87;80.09;102023.77;1751932;80;21489;-88
2022/09/22 04:32:17;;;;;;;3.62;1.80;;;;;;;10.88;80.05;102024.24;1695475;84;21001;-87
2022/09/22 04:34:47;;;;;;;2.40;1.67;;;;;;;10.91;80.02;102031.41;1702105;82;21039;-89
2022/09/22 04:37:14;;;;;;;2.17;1.57;;;;;;;10.89;79.96;102029.58;1759620;80;21072;-89
2022/09/22 04:39:41;;;;;;;3.20;2.10;;;;;;;10.89;79.98;102026.95;1780351;80;22381;-90
2022/09/22 04:42:11;;;;;;;3.75;2.25;;;;;;;10.90;80.03;102021.25;1762159;80;20982;-88
2022/09/22 04:44:38;;;;;;;8.65;2.70;;;;;;;10.90;79.93;102026.52;1775035;80;20997;-86
2022/09/22 04:47:05;;;;;;;7.03;2.77;;;;;;;10.91;79.98;102032.72;1761701;80;21153;-86
2022/09/22 04:49:32;;;;;;;7.10;3.75;;;;;;;10.91;80.00;102031.41;1755021;81;20975;-85
2022/09/22 04:51:59;;;;;;;5.53;2.20;;;;;;;10.92;80.03;102030.13;1757546;80;22864;-83
2022/09/22 04:54:26;;;;;;;3.50;2.37;;;;;;;10.94;80.04;102033.72;1763867;80;20954;-84
2022/09/22 04:56:52;;;;;;;6.70;2.30;;;;;;;10.96;80.03;102029.84;1771199;80;20968;-88
2022/09/22 04:59:19;;;;;;;3.77;2.65;;;;;;;10.97;80.03;102028.60;1773886;80;21075;-85
2022/09/22 05:01:57;;;;;;;3.05;2.00;;;;;;;11.00;80.09;102025.19;1753553;81;20950;-85
2022/09/22 05:04:23;;;;;;;5.33;2.30;;;;;;;11.03;80.06;102030.60;1753202;80;21774;-85
2022/09/22 05:06:50;;;;;;;4.55;3.17;;;;;;;10.98;80.07;102018.56;1774774;80;20943;-86
2022/09/22 05:09:17;;;;;;;3.37;2.10;;;;;;;11.06;80.00;102025.05;1759492;80;21597;-87
2022/09/22 05:12:00;;;;;;;4.03;2.77;;;;;;;11.06;79.95;102027.69;1767898;80;21007;-85
2022/09/22 05:14:26;;;;;;;3.10;2.30;;;;;;;11.06;79.92;102036.91;1743806;80;21086;-85
2022/09/22 05:16:54;;;;;;;2.65;1.98;;;;;;;11.07;79.93;102042.68;1763017;80;21690;-86
2022/09/22 05:19:21;;;;;;;5.30;2.65;;;;;;;11.09;79.91;102040.08;1777192;80;20975;-86
2022/09/22 05:21:48;;;;;;;4.60;2.72;;;;;;;11.13;79.96;102041.12;1778581;80;21065;-87
2022/09/22 05:24:14;;;;;;;2.25;1.80;;;;;;;11.12;79.90;102034.95;1737751;81;21456;-86
2022/09/22 05:26:41;;;;;;;3.08;2.25;;;;;;;11.14;79.92;102040.30;1757259;81;20963;-85
2022/09/22 05:29:08;;;;;;;3.58;2.17;;;;;;;11.15;79.94;102037.73;1754986;80;22408;-84
2022/09/22 05:31:35;;;;;;;4.25;2.70;;;;;;;11.20;80.01;102040.55;1773199;80;20991;-84
2022/09/22 05:34:02;;;;;;;3.10;2.00;;;;;;;11.21;79.88;102036.67;1776871;80;21088;-84
2022/09/22 05:36:29;;;;;;;3.58;2.25;;;;;;;11.21;79.82;102036.67;1770909;80;21203;-85
2022/09/22 05:38:56;;;;;;;4.50;2.25;;;;;;;11.25;79.89;102040.34;1746475;80;21032;-85
2022/09/22 05:41:23;;;;;;;2.95;2.05;;;;;;;11.28;79.89;102044.02;1766858;80;21712;-84
2022/09/22 05:43:52;;;;;;;3.35;2.40;;;;;;;11.32;79.83;102051.64;1748891;80;21069;-84
2022/09/22 05:46:19;;;;;;;4.00;2.10;;;;;;;11.34;79.79;102051.28;1751120;81;20979;-85
2022/09/22 05:48:46;;;;;;;4.10;2.40;;;;;;;11.36;79.73;102059.27;1763959;80;21483;-84
2022/09/22 05:51:12;;;;;;;4.15;2.60;;;;;;;11.39;79.83;102052.39;1776669;79;20958;-84
2022/09/22 05:53:39;;;;;;;5.37;2.60;;;;;;;11.45;79.85;102055.28;1745999;80;21252;-84
2022/09/22 05:56:08;;;;;;;7.72;2.40;;;;;;;11.49;79.82;102056.31;1766167;79;20974;-85
2022/09/22 05:58:35;;;;;;;5.20;2.52;;;;;;;11.58;79.93;102058.02;1771310;80;20966;-85
2022/09/22 06:01:03;;;;;;;4.85;2.70;;;;;;;11.67;79.78;102062.36;1716818;81;21003;-84
2022/09/22 06:03:30;;;;;;;7.95;2.30;;;;;;;11.71;79.63;102061.14;1700431;83;21009;-84
2022/09/22 06:05:57;;;;;;;4.67;2.00;;;;;;;11.74;79.63;102059.54;1700681;83;21742;-84
2022/09/22 06:08:24;;;;;;;2.95;1.80;;;;;;;11.75;79.47;102061.75;1700625;83;21020;-84
2022/09/22 06:10:51;;;;;;;2.65;1.98;;;;;;;11.78;79.46;102059.25;1700519;83;21428;-84
2022/09/22 06:13:18;;;;;;;4.50;1.70;;;;;;;11.86;79.78;102055.17;1700639;83;21009;-84
2022/09/22 06:15:48;;;;;;;4.62;1.70;;;;;;;11.98;79.67;102054.83;1700799;83;21028;-86
2022/09/22 06:18:16;;;;;;;3.02;1.70;;;;;;;12.09;79.73;102053.52;1701095;83;21756;-86
2022/09/22 06:20:47;;;;;;;1.67;1.40;;;;;;;12.19;79.65;102053.02;1701420;83;21010;-85
2022/09/22 06:23:14;;;;;;;2.08;1.37;;;;;;;12.37;79.75;102055.89;1715721;82;20994;-85
2022/09/22 06:25:42;;;;;;;1.65;1.37;;;;;;;12.53;79.45;102056.06;1715244;83;21903;-86
2022/09/22 06:28:11;;;;;;;2.02;1.50;;;;;;;12.62;79.15;102051.14;1701889;83;20993;-85
2022/09/22 06:30:43;;;;;;;4.17;2.02;;;;;;;12.77;78.79;102057.41;1701040;83;22412;-86
2022/09/22 06:33:45;;;;;;;5.43;2.27;;;;;;;12.85;78.45;102061.22;1678101;83;21519;-86
2022/09/22 06:35:53;;;;;;;3.12;1.85;;;;;;;13.01;78.51;102063.59;1723175;82;21306;-85
2022/09/22 06:38:20;;;;;;;4.30;1.85;;;;;;;13.23;78.48;102069.23;1699243;82;21168;-85
2022/09/22 06:40:47;;;;;;;5.97;2.35;;;;;;;13.38;78.33;102067.58;1714892;82;21011;-87
2022/09/22 06:43:24;;;;;;;8.80;2.83;;;;;;;13.51;78.22;102064.01;1708262;83;22580;-89
2022/09/22 06:45:51;;;;;;;7.62;3.08;;;;;;;13.64;78.05;102061.36;1699636;84;20969;-86
2022/09/22 06:48:20;;;;;;;4.50;2.47;;;;;;;13.73;77.87;102059.91;1704220;83;20999;-86
2022/09/22 06:50:53;;;;;;;7.62;2.75;;;;;;;13.80;77.64;102063.23;1712034;82;21506;-86
2022/09/22 06:53:23;;;;;;;3.85;2.10;;;;;;;13.90;77.67;102067.08;1699916;83;21023;-86
2022/09/22 06:55:50;;;;;;;4.28;2.30;;;;;;;13.99;77.44;102068.70;1689966;82;22683;-86
2022/09/22 06:58:16;;;;;;;3.65;2.37;;;;;;;13.99;77.16;102070.45;1699864;83;20997;-86
2022/09/22 07:00:45;;;;;;;3.30;2.00;;;;;;;14.01;77.09;102072.72;1700605;82;21650;-87
2022/09/22 07:03:24;;;;;;;3.40;1.87;;;;;;;14.02;76.93;102074.54;1684812;83;21119;-86
2022/09/22 07:05:59;;;;;;;2.10;1.77;;;;;;;14.06;76.85;102074.18;1673344;85;21007;-87
2022/09/22 07:08:28;;;;;;;3.95;1.82;;;;;;;14.12;76.84;102067.34;1699403;83;21701;-85
2022/09/22 07:11:06;;;;;;;2.02;1.60;;;;;;;14.22;76.74;102067.64;1684496;83;20999;-85
2022/09/22 07:13:35;;;;;;;3.35;1.72;;;;;;;14.31;76.49;102063.95;1684899;85;20958;-86
2022/09/22 07:16:09;;;;;;;3.12;1.67;;;;;;;14.45;76.40;102060.38;1678607;85;21077;-87
2022/09/22 07:18:43;;;;;;;9.33;5.40;;;;;;;14.60;76.64;102059.98;1697803;83;20999;-87
2022/09/22 07:21:13;;;;;;;7.67;4.05;;;;;;;14.76;76.34;102062.23;1685023;83;21822;-86
2022/09/22 07:23:43;;;;;;;5.08;2.40;;;;;;;14.91;76.26;102069.72;1654377;83;21010;-86
2022/09/22 07:26:13;;;;;;;5.10;2.08;;;;;;;15.08;76.13;102070.19;1678948;84;20983;-86
2022/09/22 07:28:40;;;;;;;2.75;1.90;;;;;;;15.31;76.02;102074.78;1632498;86;20988;-86
2022/09/22 07:31:10;;;;;;;6.28;2.40;;;;;;;15.45;75.19;102073.41;1651304;86;21011;-85
2022/09/22 07:33:38;;;;;;;7.08;1.95;;;;;;;15.39;74.51;102074.98;1651449;86;21718;-87
2022/09/22 07:36:18;;;;;;;2.92;1.92;;;;;;;15.35;73.93;102080.23;1652835;85;21014;-84
2022/09/22 07:38:51;;;;;;;1.95;1.32;;;;;;;15.21;73.58;102074.08;1651499;86;21599;-86
2022/09/22 07:41:29;;;;;;;;;;;;;;;15.17;73.71;102069.12;1658929;86;21027;-87
2022/09/22 07:45:11;;;;;;;3.62;1.35;;;;;;;15.23;73.08;102065.30;1656397;86;20173;-86
2022/09/22 07:46:30;;;;;;;2.00;1.40;;;;;;;15.11;72.93;102061.01;1700755;83;21731;-88
2022/09/22 07:48:58;;;;;;;2.02;1.25;;;;;;;15.00;72.18;102073.04;1650782;86;21025;-85
2022/09/22 07:51:26;;;;;;;1.42;1.10;;;;;;;14.85;72.04;102074.42;1650196;86;21463;-85
2022/09/22 07:54:01;;;;;;;2.08;1.40;;;;;;;14.72;72.08;102066.98;1650669;86;20969;-85
2022/09/22 07:56:26;;;;;;;3.85;1.20;;;;;;;14.70;72.27;102064.71;1651582;84;20989;-86
2022/09/22 07:58:54;;;;;;;1.07;0.98;;;;;;;14.65;71.92;102070.30;1650742;85;21907;-85
2022/09/22 08:01:25;;;;;;;2.25;1.20;;;;;;;14.45;71.76;102069.66;1684010;83;20979;-86
2022/09/22 08:03:52;;;;;;;1.60;1.22;;;;;;;14.36;72.01;102065.89;1681834;83;21019;-85
2022/09/22 08:06:20;;;;;;;2.33;1.25;;;;;;;14.42;72.40;102065.17;1678417;84;20992;-85
2022/09/22 08:08:52;;;;;;;2.10;1.05;;;;;;;14.58;72.64;102070.13;1683632;84;21030;-86
2022/09/22 08:11:26;;;;;;;1.32;1.20;;;;;;;14.71;72.32;102071.36;1678870;85;21777;-85
2022/09/22 08:14:00;;;;;;;1.37;1.07;;;;;;;14.81;72.26;102067.64;1656818;84;21026;-87
2022/09/22 08:16:29;;;;;;;1.52;1.20;;;;;;;15.02;72.30;102071.36;1708971;83;21503;-84
2022/09/22 08:19:09;;;;;;;2.47;1.22;;;;;;;15.10;71.83;102069.37;1684989;84;21010;-85
2022/09/22 08:21:34;;;;;;;1.90;1.15;;;;;;;15.18;71.81;102065.59;1685106;83;21441;-86
2022/09/22 08:24:06;;;;;;;2.22;1.17;;;;;;;15.24;71.49;102074.14;1685763;83;21722;-85
2022/09/22 08:26:35;;;;;;;4.05;1.10;;;;;;;15.04;70.57;102075.84;1676665;83;21034;-84
2022/09/22 08:29:02;;;;;;;2.05;1.05;;;;;;;14.91;70.54;102071.94;1723400;81;21510;-84
2022/09/22 08:31:29;;;;;;;2.95;1.40;;;;;;;15.02;71.19;102072.69;1701436;82;21494;-84
2022/09/22 08:33:56;;;;;;;2.72;1.30;;;;;;;15.26;71.39;102072.42;1699303;84;21071;-86
2022/09/22 08:36:25;;;;;;;4.17;1.55;;;;;;;15.52;71.17;102070.06;1699054;83;22504;-84
2022/09/22 08:38:54;;;;;;;2.85;1.20;;;;;;;15.78;70.94;102068.94;1698298;83;20976;-85
2022/09/22 08:41:30;;;;;;;1.20;1.10;;;;;;;15.92;70.40;102069.75;1699043;83;20999;-85
2022/09/22 08:44:09;;;;;;;3.47;1.37;;;;;;;16.07;70.34;102082.94;1713282;83;21037;-87
2022/09/22 08:46:42;;;;;;;5.62;1.30;;;;;;;16.02;69.82;102085.47;1697407;82;21040;-87
2022/09/22 08:52:43;;;;;;;3.35;1.50;;;;;;;15.68;69.20;102083.72;1683728;84;21035;-87
2022/09/22 08:55:22;;;;;;;2.00;1.10;;;;;;;15.47;69.54;102090.27;1655017;84;20979;-84
2022/09/22 08:58:23;;;;;;;2.92;1.32;;;;;;;15.33;69.88;102083.27;1675892;83;20992;-84
2022/09/22 09:01:11;;;;;;;2.27;1.27;;;;;;;15.27;70.01;102085.73;1714112;81;20994;-87
2022/09/22 09:03:53;;;;;;;2.67;1.50;;;;;;;15.18;70.36;102089.91;1709145;82;22613;-86
2022/09/22 09:06:34;;;;;;;3.25;1.35;;;;;;;15.08;70.61;102092.73;1704647;83;21019;-86
2022/09/22 09:09:24;;;;;;;3.83;1.50;;;;;;;15.15;71.20;102102.23;1691583;83;21003;-85
2022/09/22 09:12:20;;;;;;;3.37;1.67;;;;;;;15.12;71.02;102098.16;1704813;83;21418;-86
2022/09/22 09:15:25;;;;;;;2.87;1.30;;;;;;;15.08;71.21;102099.36;1704959;84;21031;-88
2022/09/22 09:17:54;;;;;;;2.50;1.37;;;;;;;15.14;71.63;102103.06;1704862;83;21714;-84
2022/09/22 09:20:43;;;;;;;3.08;1.60;;;;;;;15.26;71.67;102102.53;1704621;83;22078;-85
2022/09/22 09:23:30;;;;;;;2.07;1.60;;;;;;;15.29;71.86;102101.70;1730755;82;20995;-85
2022/09/22 09:25:59;;;;;;;2.77;1.60;;;;;;;15.34;71.71;102102.73;1705058;83;21497;-85
2022/09/22 09:28:36;;;;;;;4.72;1.87;;;;;;;15.34;71.37;102102.73;1711256;83;21032;-85
2022/09/22 09:31:08;;;;;;;2.35;1.60;;;;;;;15.41;71.63;102108.68;1704832;83;21751;-85
2022/09/22 09:34:00;;;;;;;1.70;1.50;;;;;;;15.53;71.64;102104.12;1702155;84;20969;-85
2022/09/22 09:36:39;;;;;;;3.70;1.70;;;;;;;15.67;71.85;102097.42;1708772;82;20986;-85
2022/09/22 09:39:19;;;;;;;2.17;1.62;;;;;;;15.92;71.79;102097.63;1713210;81;21019;-85
2022/09/22 09:41:46;;;;;;;2.00;1.42;;;;;;;16.09;71.51;102099.36;1687533;83;21006;-85
2022/09/22 09:44:23;;;;;;;2.22;1.27;;;;;;;16.30;71.46;102094.98;1684782;85;21749;-86
2022/09/22 09:47:16;;;;;;;1.55;1.40;;;;;;;16.49;71.27;102094.06;1686721;83;21605;-85
2022/09/22 09:49:42;;;;;;;1.47;1.25;;;;;;;16.68;71.12;102088.72;1687879;81;21002;-85
2022/09/22 09:52:13;;;;;;;1.87;1.10;;;;;;;16.95;71.13;102084.45;1660746;85;21040;-86
2022/09/22 09:54:40;;;;;;;1.77;1.37;;;;;;;17.16;71.08;102077.75;1676860;83;21014;-86
2022/09/22 09:57:17;;;;;;;2.60;1.30;;;;;;;17.41;70.91;102079.98;1737638;82;21979;-86
2022/09/22 10:03:06;;;;;;;5.05;1.25;;;;;;;17.77;70.00;102073.94;1702677;81;21028;-86
2022/09/22 10:05:36;;;;;;;3.08;1.35;;;;;;;17.91;69.46;102076.88;1687092;82;20989;-86
2022/09/22 10:08:15;;;;;;;3.70;1.70;;;;;;;17.98;68.93;102079.66;1732707;82;21597;-86
2022/09/22 10:10:42;;;;;;;3.65;1.22;;;;;;;18.00;68.90;102076.99;1731000;82;21198;-86
2022/09/22 10:13:17;;;;;;;1.10;1.10;;;;;;;18.06;68.51;102078.45;1736642;82;21012;-86
2022/09/22 10:15:44;;;;;;;2.42;1.35;;;;;;;18.04;67.71;102077.08;1759170;81;21006;-86
2022/09/22 10:18:39;;;;;;;1.47;1.12;;;;;;;17.78;67.13;102075.75;1724469;80;21091;-86
2022/09/22 10:21:18;;;;;;;2.00;1.27;;;;;;;17.73;67.41;102077.43;1742907;80;21040;-86
2022/09/22 10:23:49;;;;;;;2.15;1.50;;;;;;;17.76;67.24;102069.50;1737601;81;22362;-86
2022/09/22 10:26:29;;;;;;;2.10;1.70;;;;;;;17.80;67.36;102072.67;1737079;81;22011;-86
2022/09/22 10:29:18;;;;;;;2.35;1.82;;;;;;;17.76;67.09;102072.16;1737523;81;21503;-86
2022/09/22 10:32:13;;;;;;;3.47;1.72;;;;;;;17.54;66.64;102069.12;1737350;81;21025;-86
2022/09/22 10:34:48;;;;;;;2.27;1.45;;;;;;;17.47;66.54;102071.20;1766070;80;21039;-86
2022/09/22 10:37:22;;;;;;;2.33;1.50;;;;;;;17.65;67.01;102064.88;1715146;82;21686;-86
2022/09/22 10:39:51;;;;;;;1.82;1.32;;;;;;;17.89;66.58;102063.53;1733203;82;21000;-86
2022/09/22 10:42:39;;;;;;;2.33;1.50;;;;;;;18.01;66.24;102062.38;1737556;82;21028;-86
2022/09/22 10:45:12;;;;;;;2.17;1.77;;;;;;;18.08;65.93;102057.16;1738940;82;21813;-86
2022/09/22 10:48:07;;;;;;;2.83;1.72;;;;;;;17.91;64.72;102063.12;1742339;80;21475;-85
2022/09/22 10:51:02;;;;;;;3.90;1.70;;;;;;;17.67;64.71;102059.14;1725506;80;21752;-85
2022/09/22 10:53:44;;;;;;;2.20;1.50;;;;;;;17.69;64.82;102062.72;1741460;80;21028;-86
2022/09/22 10:56:23;;;;;;;3.20;1.70;;;;;;;17.58;64.86;102062.09;1765342;80;20986;-85
2022/09/22 10:59:07;;;;;;;2.17;1.72;;;;;;;17.49;64.49;102062.81;1737844;82;21041;-86
2022/09/22 11:01:54;;;;;;;1.47;1.20;;;;;;;17.37;64.65;102063.95;1723576;82;20982;-86
2022/09/22 11:05:03;;;;;;;1.15;1.05;;;;;;;17.32;63.94;102069.61;1740574;81;21778;-86
2022/09/22 11:14:34;;;;;;;1.15;1.05;;;;;;;17.09;63.09;102059.44;1732137;82;20992;-86
2022/09/22 11:17:39;;;;;;;1.00;1.00;;;;;;;17.10;62.95;102056.81;1697624;82;21050;-87
2022/09/22 11:20:38;;;;;;;0.78;0.78;;;;;;;17.20;63.26;102048.56;1692639;83;21514;-85
2022/09/22 11:23:31;;;;;;;1.20;1.00;;;;;;;17.25;62.20;102057.53;1706968;82;21043;-85
2022/09/22 11:26:03;;;;;;;1.57;1.20;;;;;;;17.09;62.47;102051.02;1705944;82;21952;-86
2022/09/22 11:28:59;;;;;;;1.90;1.10;;;;;;;17.04;62.30;102056.70;1715430;82;20996;-86
2022/09/22 11:31:50;;;;;;;2.20;1.37;;;;;;;17.06;62.59;102053.64;1724626;81;21037;-86
2022/09/22 11:34:25;;;;;;;1.65;1.00;;;;;;;17.09;62.61;102056.33;1697043;83;21793;-86
2022/09/22 11:37:26;;;;;;;3.72;1.30;;;;;;;17.01;62.32;102054.41;1697117;83;20990;-85
2022/09/22 11:40:18;;;;;;;1.20;1.10;;;;;;;17.02;62.67;102046.87;1701703;82;21448;-85
2022/09/22 11:43:16;;;;;;;2.10;1.22;;;;;;;17.08;62.60;102047.91;1701596;83;21040;-85
2022/09/22 11:46:11;;;;;;;3.05;1.30;;;;;;;17.07;62.37;102054.08;1700516;82;20998;-85
2022/09/22 11:49:16;;;;;;;1.92;1.10;;;;;;;16.89;62.27;102055.05;1620764;87;21929;-85
2022/09/22 11:52:03;;;;;;;4.83;1.40;;;;;;;16.78;62.66;102054.82;1664495;85;21009;-85
2022/09/22 11:55:04;;;;;;;2.37;1.20;;;;;;;16.65;62.40;102050.13;1643902;86;21475;-85
2022/09/22 11:57:37;;;;;;;1.30;1.02;;;;;;;16.48;61.89;102046.67;1630761;87;21512;-86
2022/09/22 12:00:19;;;;;;;4.00;1.10;;;;;;;16.55;62.31;102045.02;1627115;86;21019;-86
2022/09/22 12:02:57;;;;;;;4.00;1.40;;;;;;;16.60;61.92;102036.72;1637565;85;21781;-86
2022/09/22 12:06:00;;;;;;;3.08;1.20;;;;;;;16.49;61.75;102028.95;1654984;86;21344;-86
2022/09/22 12:08:35;;;;;;;4.95;1.20;;;;;;;16.43;61.72;102027.50;1655478;85;21078;-86
2022/09/22 12:11:02;;;;;;;6.92;1.15;;;;;;;16.34;61.91;102037.48;1655169;84;20987;-86